This is the latest recevied weather packets stored in our database for station/object F4AMY-13. If no packets are shown the sender has not sent any weather packets the latest 10 day(s).
| Time | Temp. | Humidity | Pressure | Rain* | Wind** | Luminosity | Snow |
|---|---|---|---|---|---|---|---|
| 1777546924 | 24.44° C | 47% | 1016.1 hPa | 0 mm | 57.67 m/s, ° | 129 W/m² | - |
| 1777546624 | 24.44° C | 47% | 1016 hPa | 0 mm | 54.09 m/s, ° | 121 W/m² | - |
| 1777546324 | 24.44° C | 46% | 1016 hPa | 0 mm | 49.17 m/s, ° | 110 W/m² | - |
| 1777546024 | 24.44° C | 48% | 1016 hPa | 0 mm | 69.74 m/s, ° | 156 W/m² | - |
| 1777545724 | 24.44° C | 47% | 1015.9 hPa | 0 mm | 71.08 m/s, ° | 159 W/m² | - |
| 1777545424 | 24.44° C | 48% | 1015.8 hPa | 0 mm | 67.95 m/s, ° | 152 W/m² | - |
| 1777545124 | 24.44° C | 47% | 1015.9 hPa | 0 mm | 56.33 m/s, ° | 126 W/m² | - |
| 1777544824 | 23.89° C | 46% | 1015.9 hPa | 0 mm | 59.01 m/s, ° | 132 W/m² | - |
| 1777544523 | 23.89° C | 48% | 1016 hPa | 0 mm | 57.22 m/s, ° | 128 W/m² | - |
| 1777544223 | 23.89° C | 47% | 1015.9 hPa | 0 mm | 64.37 m/s, ° | 144 W/m² | - |
| 1777543923 | 23.33° C | 47% | 1015.7 hPa | 0 mm | 66.16 m/s, ° | 148 W/m² | - |
| 1777543623 | 23.33° C | 52% | 1015.8 hPa | 0 mm | 62.14 m/s, ° | 139 W/m² | - |
| 1777543323 | 22.78° C | 48% | 1015.8 hPa | 0 mm | 46.05 m/s, ° | 103 W/m² | - |
| 1777543023 | 22.78° C | 48% | 1015.8 hPa | 0 mm | 48.28 m/s, ° | 108 W/m² | - |
| 1777542723 | 22.78° C | 50% | 1015.9 hPa | 0 mm | 35.32 m/s, ° | 79 W/m² | - |
| 1777542423 | 22.78° C | 51% | 1016 hPa | 0 mm | 32.19 m/s, ° | 72 W/m² | - |
| 1777542123 | 22.78° C | 50% | 1016 hPa | 0 mm | 28.16 m/s, ° | 63 W/m² | - |
| 1777541824 | 22.22° C | 49% | 1016 hPa | 0 mm | 25.03 m/s, ° | 56 W/m² | - |
| 1777541823 | 22.22° C | 49% | 1016 hPa | 0 mm | 25.03 m/s, ° | 56 W/m² | - |
| 1777541523 | 22.22° C | 50% | 1015.8 hPa | 0 mm | 23.25 m/s, ° | 52 W/m² | - |
| 1777541223 | 22.22° C | 48% | 1015.8 hPa | 0 mm | 22.8 m/s, ° | 51 W/m² | - |
| 1777540922 | 22.22° C | 48% | 1016 hPa | 0 mm | 20.56 m/s, ° | 46 W/m² | - |
| 1777540623 | 21.67° C | 50% | 1015.8 hPa | 0 mm | 28.16 m/s, ° | 63 W/m² | - |
| 1777540622 | 21.67° C | 50% | 1015.8 hPa | 0 mm | 28.16 m/s, ° | 63 W/m² | - |
| 1777540323 | 21.67° C | 50% | 1015.8 hPa | 0 mm | 23.25 m/s, ° | 52 W/m² | - |
* Rain latest hour (hover to see other rain measurements)
** Current wind speed in m/s (hover to see current wind gust speed)